Time;durP1;ratioP1;P1;durP2;ratioP2;P2;SDS_P1;SDS_P2;PMS_P1;PMS_P2;Temp;Humidity;BMP_temperature;BMP_pressure;BME280_temperature;BME280_humidity;BME280_pressure;Samples;Min_cycle;Max_cycle;Signal;HPM_P1;HPM_P2
2023/05/31 00:02:03;;;;;;;0.20;0.20;;;19.50;99.90;;;;;;5032333;28;20025;-86
2023/05/31 00:04:28;;;;;;;0.20;0.20;;;19.40;99.90;;;;;;5032707;28;20025;-86
2023/05/31 00:06:54;;;;;;;0.28;0.20;;;19.50;99.90;;;;;;5032361;28;20573;-86
2023/05/31 00:09:20;;;;;;;0.65;0.57;;;19.70;99.90;;;;;;5014445;28;20022;-86
2023/05/31 00:11:45;;;;;;;1.55;0.22;;;19.60;99.90;;;;;;5032014;28;20029;-86
2023/05/31 00:14:11;;;;;;;0.43;0.43;;;19.40;99.90;;;;;;5014600;28;20099;-86
2023/05/31 00:16:36;;;;;;;0.57;0.50;;;19.30;99.90;;;;;;5031891;28;20045;-86
2023/05/31 00:19:02;;;;;;;0.15;0.15;;;19.30;99.90;;;;;;5032560;28;20033;-87
2023/05/31 00:21:28;;;;;;;0.10;0.10;;;19.20;99.90;;;;;;5032482;28;20556;-86
2023/05/31 00:23:53;;;;;;;0.10;0.10;;;19.40;99.90;;;;;;5032196;28;20030;-86
2023/05/31 00:26:19;;;;;;;0.15;0.15;;;19.30;99.90;;;;;;5032306;28;20021;-86
2023/05/31 00:28:45;;;;;;;0.17;0.17;;;19.40;99.90;;;;;;5032080;28;20032;-86
2023/05/31 00:31:10;;;;;;;0.20;0.20;;;19.40;99.90;;;;;;5032024;28;20402;-87
2023/05/31 00:33:36;;;;;;;0.03;0.03;;;19.30;99.90;;;;;;5032088;28;20029;-86
2023/05/31 00:36:02;;;;;;;0.10;0.10;;;19.20;99.90;;;;;;5032108;28;20033;-86
2023/05/31 00:38:28;;;;;;;0.25;0.25;;;19.20;99.90;;;;;;5031992;28;20026;-87
2023/05/31 00:40:53;;;;;;;0.10;0.10;;;19.30;99.90;;;;;;5032792;28;20478;-86
2023/05/31 00:43:19;;;;;;;0.10;0.10;;;19.20;99.90;;;;;;5052001;28;20025;-86
2023/05/31 00:45:45;;;;;;;0.10;0.10;;;19.10;99.90;;;;;;5052357;28;20082;-86
2023/05/31 00:48:11;;;;;;;0.10;0.10;;;19.10;99.90;;;;;;5051871;28;20051;-86
2023/05/31 00:50:37;;;;;;;0.00;0.00;;;19.20;99.90;;;;;;5020539;28;20029;-86
2023/05/31 00:53:04;;;;;;;0.10;0.10;;;19.10;99.90;;;;;;5031232;28;20175;-86
2023/05/31 00:55:32;;;;;;;0.10;0.10;;;18.90;99.90;;;;;;5014332;28;20030;-86
2023/05/31 00:57:58;;;;;;;0.08;0.08;;;18.90;99.90;;;;;;5031944;28;20045;-86
2023/05/31 01:00:24;;;;;;;0.10;0.10;;;19.00;99.90;;;;;;5010504;28;20137;-86
2023/05/31 01:02:50;;;;;;;0.10;0.10;;;18.70;99.90;;;;;;5011030;28;20598;-86
2023/05/31 01:05:16;;;;;;;1.00;0.80;;;18.50;99.90;;;;;;5013698;28;20394;-86
2023/05/31 01:07:42;;;;;;;0.30;0.30;;;18.40;99.90;;;;;;5016111;28;20045;-86
2023/05/31 01:10:08;;;;;;;1.98;0.43;;;18.50;99.90;;;;;;5015542;28;20022;-86
2023/05/31 01:13:00;;;;;;;0.52;0.45;;;18.50;99.90;;;;;;5015794;28;20041;-86
2023/05/31 01:15:38;;;;;;;0.20;0.20;;;18.50;99.90;;;;;;5015962;28;20065;-86
2023/05/31 01:18:03;;;;;;;0.28;0.28;;;18.60;99.90;;;;;;5016240;28;20169;-87
2023/05/31 01:20:34;;;;;;;0.22;0.05;;;18.70;99.90;;;;;;5015094;28;20034;-87
2023/05/31 01:23:18;;;;;;;0.10;0.10;;;18.70;99.90;;;;;;5015485;28;20069;-86
2023/05/31 01:25:53;;;;;;;0.10;0.10;;;18.50;99.90;;;;;;5014149;28;20029;-86
2023/05/31 01:28:21;;;;;;;0.10;0.10;;;18.40;99.90;;;;;;5015413;28;20129;-87
2023/05/31 01:30:49;;;;;;;0.17;0.17;;;18.40;99.90;;;;;;5014460;28;20462;-87
2023/05/31 01:33:16;;;;;;;0.52;0.38;;;18.30;99.90;;;;;;5015609;28;20034;-87
2023/05/31 01:35:42;;;;;;;0.30;0.20;;;18.10;99.90;;;;;;5015286;28;20041;-86
2023/05/31 01:38:07;;;;;;;0.15;0.15;;;18.00;99.90;;;;;;5014270;28;20034;-86
2023/05/31 01:40:34;;;;;;;0.10;0.10;;;18.10;99.90;;;;;;5015510;28;20156;-86
2023/05/31 01:43:00;;;;;;;0.95;0.30;;;18.20;99.90;;;;;;5013984;28;20041;-87
2023/05/31 01:45:27;;;;;;;0.20;0.20;;;18.10;99.90;;;;;;5016131;28;20048;-86
2023/05/31 01:47:58;;;;;;;0.10;0.10;;;18.00;99.90;;;;;;5015310;28;20060;-86
2023/05/31 01:50:25;;;;;;;0.00;0.00;;;18.00;99.90;;;;;;5003242;28;20077;-87
2023/05/31 01:52:51;;;;;;;0.20;0.17;;;18.20;99.90;;;;;;4994216;28;20045;-87
2023/05/31 01:55:16;;;;;;;1.45;0.43;;;18.00;99.90;;;;;;4996003;28;20038;-87
2023/05/31 01:57:44;;;;;;;0.10;0.10;;;18.20;99.90;;;;;;4994115;28;20038;-87
2023/05/31 02:00:12;;;;;;;0.10;0.10;;;18.10;99.90;;;;;;5009297;28;20045;-86
2023/05/31 02:02:42;;;;;;;0.10;0.10;;;18.10;99.90;;;;;;5014945;28;20042;-87
2023/05/31 02:05:11;;;;;;;2.40;0.30;;;17.90;99.90;;;;;;5013319;28;20021;-86
2023/05/31 02:07:40;;;;;;;0.38;0.38;;;17.80;99.90;;;;;;5014942;28;20040;-87
2023/05/31 02:10:07;;;;;;;0.77;0.60;;;17.90;99.90;;;;;;5013422;28;20398;-86
2023/05/31 02:12:33;;;;;;;0.30;0.30;;;18.00;99.90;;;;;;5014920;28;20488;-86
2023/05/31 02:14:58;;;;;;;0.30;0.30;;;18.10;99.90;;;;;;5015104;28;20052;-86
2023/05/31 02:17:24;;;;;;;0.17;0.17;;;17.90;99.90;;;;;;5014426;28;20068;-87
2023/05/31 02:19:54;;;;;;;0.13;0.13;;;17.80;99.90;;;;;;5014577;28;20022;-86
2023/05/31 02:22:20;;;;;;;0.10;0.10;;;17.80;99.90;;;;;;5014702;28;20026;-87
2023/05/31 02:24:47;;;;;;;0.08;0.08;;;17.70;99.90;;;;;;5014725;28;20108;-86
2023/05/31 02:27:13;;;;;;;0.20;0.20;;;17.70;99.90;;;;;;5014447;28;20038;-87
2023/05/31 02:29:39;;;;;;;0.00;0.00;;;17.70;99.90;;;;;;5014506;28;20137;-86
2023/05/31 02:32:05;;;;;;;0.00;0.00;;;17.80;99.90;;;;;;5012898;28;20053;-86
2023/05/31 02:34:31;;;;;;;0.20;0.20;;;17.70;99.90;;;;;;5012677;28;20052;-86
2023/05/31 02:36:57;;;;;;;0.10;0.10;;;17.70;99.90;;;;;;5014339;28;20391;-86
2023/05/31 02:39:24;;;;;;;0.20;0.20;;;17.60;99.90;;;;;;5013053;28;20026;-87
2023/05/31 02:41:50;;;;;;;0.00;0.00;;;17.50;99.90;;;;;;5020917;28;20025;-87
2023/05/31 02:44:16;;;;;;;0.00;0.00;;;17.60;99.90;;;;;;5034607;28;20093;-87
2023/05/31 02:46:41;;;;;;;0.55;0.45;;;17.70;99.90;;;;;;5033884;28;20025;-86
2023/05/31 02:49:07;;;;;;;0.22;0.22;;;17.50;99.90;;;;;;5030896;28;20036;-87
2023/05/31 02:51:33;;;;;;;0.10;0.10;;;17.50;99.90;;;;;;5014026;28;20026;-86
2023/05/31 02:53:58;;;;;;;0.40;0.10;;;17.50;99.90;;;;;;5013955;28;20506;-87
2023/05/31 02:56:26;;;;;;;0.10;0.10;;;17.60;99.90;;;;;;5013957;28;20040;-87
2023/05/31 02:58:52;;;;;;;0.10;0.10;;;17.50;99.90;;;;;;5018473;28;20053;-87
2023/05/31 03:01:17;;;;;;;0.57;0.57;;;17.50;99.90;;;;;;5033530;28;20378;-87
2023/05/31 03:03:43;;;;;;;0.25;0.08;;;17.50;99.90;;;;;;5033505;28;20121;-86
2023/05/31 03:06:09;;;;;;;0.08;0.08;;;17.50;99.90;;;;;;5034049;28;20033;-87
2023/05/31 03:08:34;;;;;;;0.10;0.10;;;17.30;99.90;;;;;;5034186;28;20489;-87
2023/05/31 03:11:00;;;;;;;0.32;0.30;;;17.30;99.90;;;;;;5033863;28;20029;-86
2023/05/31 03:13:26;;;;;;;0.10;0.10;;;17.40;99.90;;;;;;5015667;28;20032;-86
2023/05/31 03:15:51;;;;;;;0.20;0.20;;;17.20;99.90;;;;;;5015764;28;20033;-86
2023/05/31 03:18:17;;;;;;;0.20;0.20;;;17.20;99.90;;;;;;5015252;28;20064;-86
2023/05/31 03:20:42;;;;;;;0.10;0.10;;;17.20;99.90;;;;;;5033031;28;20030;-87
2023/05/31 03:23:08;;;;;;;0.75;0.17;;;17.10;99.90;;;;;;5033057;28;20030;-87
2023/05/31 03:25:34;;;;;;;13.95;0.52;;;16.90;99.90;;;;;;5033422;28;20029;-86
2023/05/31 03:28:00;;;;;;;0.20;0.20;;;16.80;99.90;;;;;;5032159;28;20025;-87
2023/05/31 03:30:25;;;;;;;0.15;0.15;;;16.90;99.90;;;;;;5033328;28;20443;-87
2023/05/31 03:32:51;;;;;;;0.65;0.65;;;16.80;99.90;;;;;;5015483;28;20112;-87
2023/05/31 03:35:17;;;;;;;0.00;0.00;;;16.70;99.90;;;;;;5033007;28;20021;-86
2023/05/31 03:37:43;;;;;;;0.30;0.30;;;16.50;99.90;;;;;;5033353;28;20033;-87
2023/05/31 03:40:09;;;;;;;0.30;0.22;;;16.70;99.90;;;;;;5015537;28;20466;-86
2023/05/31 03:42:35;;;;;;;0.22;0.22;;;16.80;99.90;;;;;;5047816;28;20112;-86
2023/05/31 03:45:01;;;;;;;0.20;0.20;;;16.70;99.90;;;;;;5035084;28;20028;-86
2023/05/31 03:47:27;;;;;;;0.10;0.10;;;16.80;99.90;;;;;;5052174;28;20075;-86
2023/05/31 03:49:53;;;;;;;0.13;0.13;;;16.80;99.90;;;;;;5045420;28;20029;-87
2023/05/31 03:52:18;;;;;;;0.57;0.57;;;16.80;99.90;;;;;;5014963;28;20112;-86
2023/05/31 03:54:44;;;;;;;0.10;0.10;;;16.80;99.90;;;;;;5032433;28;20040;-87
2023/05/31 03:57:10;;;;;;;0.00;0.00;;;16.70;99.90;;;;;;5032890;28;20033;-86
2023/05/31 03:59:35;;;;;;;0.35;0.35;;;16.80;99.90;;;;;;5032853;28;20049;-86
2023/05/31 04:02:02;;;;;;;0.10;0.10;;;16.70;99.90;;;;;;5034584;28;20022;-86
2023/05/31 04:04:28;;;;;;;0.10;0.10;;;16.70;99.90;;;;;;5014370;28;20025;-87
2023/05/31 04:06:53;;;;;;;0.20;0.20;;;16.70;99.90;;;;;;5015446;28;20510;-87
2023/05/31 04:09:19;;;;;;;0.22;0.22;;;16.60;99.90;;;;;;5033395;28;20025;-87
2023/05/31 04:11:45;;;;;;;0.30;0.30;;;16.60;99.90;;;;;;5033231;28;20036;-88
2023/05/31 04:14:11;;;;;;;0.15;0.15;;;16.50;99.90;;;;;;5015294;28;20121;-88
2023/05/31 04:16:37;;;;;;;0.30;0.30;;;16.60;99.90;;;;;;5032796;28;20506;-89
2023/05/31 04:19:03;;;;;;;0.35;0.35;;;16.80;99.90;;;;;;5033437;28;20032;-89
2023/05/31 04:21:28;;;;;;;0.30;0.30;;;16.50;99.90;;;;;;5015487;28;20243;-87
2023/05/31 04:23:55;;;;;;;0.20;0.17;;;16.40;99.90;;;;;;5033093;28;20033;-89
2023/05/31 04:26:21;;;;;;;0.10;0.10;;;16.40;99.90;;;;;;5032677;28;20029;-86
2023/05/31 04:28:51;;;;;;;0.20;0.20;;;16.40;99.90;;;;;;5032556;28;20398;-85
2023/05/31 04:31:17;;;;;;;0.10;0.10;;;16.60;99.90;;;;;;5031925;28;20108;-86
2023/05/31 04:33:43;;;;;;;0.20;0.20;;;16.70;99.90;;;;;;5031180;28;20278;-87
2023/05/31 04:36:10;;;;;;;0.10;0.10;;;16.70;99.90;;;;;;5040257;28;21386;-85
2023/05/31 04:38:35;;;;;;;0.25;0.25;;;16.80;99.90;;;;;;5037118;28;20075;-86
2023/05/31 04:41:01;;;;;;;0.80;0.20;;;16.70;99.90;;;;;;5057814;28;20111;-86
2023/05/31 04:43:27;;;;;;;0.65;0.25;;;16.70;99.90;;;;;;5057663;28;20028;-90
2023/05/31 04:45:53;;;;;;;0.28;0.28;;;16.80;99.90;;;;;;5040592;28;20520;-87
2023/05/31 04:48:19;;;;;;;0.20;0.20;;;16.80;99.90;;;;;;5058702;28;20029;-87
2023/05/31 04:50:46;;;;;;;0.22;0.22;;;16.90;99.90;;;;;;5027039;28;20371;-87
2023/05/31 04:53:12;;;;;;;0.20;0.20;;;16.80;99.90;;;;;;5039092;28;20061;-87
2023/05/31 04:55:38;;;;;;;0.20;0.20;;;16.90;99.90;;;;;;5021475;28;20032;-86
2023/05/31 04:58:04;;;;;;;1.83;0.90;;;16.80;99.90;;;;;;5038697;28;20045;-87
2023/05/31 05:00:30;;;;;;;0.45;0.40;;;16.80;99.90;;;;;;5039205;28;20041;-87
2023/05/31 05:02:56;;;;;;;0.10;0.10;;;16.80;99.90;;;;;;5038437;28;20057;-87
2023/05/31 05:05:23;;;;;;;1.83;0.68;;;16.90;99.90;;;;;;5043729;28;20017;-87
2023/05/31 05:07:49;;;;;;;0.30;0.30;;;16.70;99.90;;;;;;5039550;28;20026;-84
2023/05/31 05:10:15;;;;;;;0.20;0.20;;;16.70;99.90;;;;;;5037889;28;20108;-83
2023/05/31 05:12:40;;;;;;;0.10;0.10;;;16.80;99.90;;;;;;5037283;28;20100;-83
2023/05/31 05:15:07;;;;;;;0.93;0.68;;;17.00;99.90;;;;;;5037887;28;20071;-83
2023/05/31 05:17:33;;;;;;;0.40;0.40;;;17.00;99.90;;;;;;5037759;28;20087;-83
2023/05/31 05:19:59;;;;;;;0.65;0.50;;;17.00;99.90;;;;;;5037419;28;20478;-82
2023/05/31 05:22:24;;;;;;;0.28;0.28;;;16.80;99.90;;;;;;5019473;28;20029;-83
2023/05/31 05:24:50;;;;;;;0.10;0.10;;;16.80;99.90;;;;;;5037590;28;20033;-83
2023/05/31 05:27:16;;;;;;;0.10;0.10;;;16.90;99.90;;;;;;5037132;28;20434;-82
2023/05/31 05:29:41;;;;;;;0.20;0.20;;;16.80;99.90;;;;;;5037387;28;20025;-83
2023/05/31 05:32:07;;;;;;;0.10;0.10;;;16.80;99.90;;;;;;5037312;28;20057;-82
2023/05/31 05:34:33;;;;;;;0.30;0.30;;;17.00;99.90;;;;;;5037474;28;20393;-83
2023/05/31 05:36:58;;;;;;;0.10;0.10;;;17.00;99.90;;;;;;5037734;28;20448;-84
2023/05/31 05:39:24;;;;;;;0.13;0.13;;;17.30;99.90;;;;;;5057376;28;20481;-84
2023/05/31 05:41:50;;;;;;;0.22;0.22;;;17.40;99.90;;;;;;5057111;28;20020;-84
2023/05/31 05:44:15;;;;;;;0.10;0.10;;;17.40;99.90;;;;;;5057827;28;20040;-84
2023/05/31 05:46:41;;;;;;;0.10;0.10;;;17.50;99.90;;;;;;5057856;28;20033;-84
2023/05/31 05:49:06;;;;;;;0.03;0.03;;;17.40;99.90;;;;;;5056890;28;20386;-84
2023/05/31 05:51:32;;;;;;;0.10;0.10;;;17.50;99.90;;;;;;5034404;28;20031;-84
2023/05/31 05:53:58;;;;;;;0.20;0.20;;;17.60;99.90;;;;;;5034002;28;20494;-84
2023/05/31 05:56:23;;;;;;;0.10;0.10;;;17.60;99.90;;;;;;5034550;28;20033;-84
2023/05/31 05:58:49;;;;;;;0.25;0.20;;;17.60;99.90;;;;;;5033999;28;20076;-84
2023/05/31 06:01:19;;;;;;;0.35;0.28;;;17.70;99.90;;;;;;5016186;28;20028;-84
2023/05/31 06:03:49;;;;;;;0.20;0.20;;;17.80;99.90;;;;;;5033836;28;20505;-84
2023/05/31 06:06:16;;;;;;;0.00;0.00;;;17.90;99.90;;;;;;5034006;28;20057;-84
2023/05/31 06:08:45;;;;;;;0.10;0.10;;;17.90;99.90;;;;;;5034231;28;20018;-84
2023/05/31 06:11:11;;;;;;;0.00;0.00;;;18.20;99.90;;;;;;5032722;28;20033;-82
2023/05/31 06:13:37;;;;;;;0.00;0.00;;;18.30;99.90;;;;;;5031107;28;20028;-83
2023/05/31 06:16:04;;;;;;;0.03;0.03;;;18.40;99.90;;;;;;5030040;28;20033;-83
2023/05/31 06:18:30;;;;;;;0.00;0.00;;;18.50;99.90;;;;;;5032250;28;20091;-84
2023/05/31 06:20:56;;;;;;;0.10;0.10;;;18.50;99.90;;;;;;5032132;28;20025;-83
2023/05/31 06:23:21;;;;;;;0.10;0.10;;;18.60;99.90;;;;;;5033528;28;20029;-84
2023/05/31 06:25:47;;;;;;;0.10;0.10;;;18.50;99.90;;;;;;5033420;28;20604;-83
2023/05/31 06:28:13;;;;;;;0.10;0.10;;;18.60;99.90;;;;;;5033510;28;20037;-83
2023/05/31 06:30:38;;;;;;;0.10;0.10;;;18.60;99.90;;;;;;5033686;28;20021;-84
2023/05/31 06:33:04;;;;;;;0.20;0.20;;;18.80;99.90;;;;;;5033134;28;20112;-82
2023/05/31 06:35:30;;;;;;;0.30;0.20;;;18.90;99.90;;;;;;5033515;28;20112;-83
2023/05/31 06:37:55;;;;;;;0.10;0.10;;;18.80;99.90;;;;;;5031408;28;20044;-84
2023/05/31 06:40:22;;;;;;;12.70;1.00;;;18.80;99.90;;;;;;5041233;28;20021;-84
2023/05/31 06:42:47;;;;;;;0.30;0.30;;;18.70;99.90;;;;;;5052779;28;20032;-84
2023/05/31 06:45:13;;;;;;;0.10;0.10;;;18.70;99.90;;;;;;5053266;28;20385;-84
2023/05/31 06:47:39;;;;;;;0.17;0.17;;;18.70;99.90;;;;;;5053132;28;20036;-84
2023/05/31 06:50:05;;;;;;;0.10;0.10;;;18.70;99.90;;;;;;5044306;28;20508;-84
2023/05/31 06:52:31;;;;;;;0.30;0.30;;;18.70;99.90;;;;;;5032935;28;20048;-84
2023/05/31 06:54:56;;;;;;;0.32;0.32;;;18.60;99.90;;;;;;5032641;28;20367;-84
2023/05/31 06:57:22;;;;;;;0.20;0.20;;;18.60;99.90;;;;;;5032975;28;20117;-84
2023/05/31 06:59:48;;;;;;;0.57;0.57;;;18.80;99.90;;;;;;5032871;28;20046;-84
2023/05/31 07:02:14;;;;;;;0.20;0.10;;;18.80;99.90;;;;;;5032180;28;20035;-84
2023/05/31 07:04:40;;;;;;;0.25;0.25;;;18.80;99.90;;;;;;5014935;28;20409;-84
2023/05/31 07:07:09;;;;;;;0.25;0.25;;;18.80;99.90;;;;;;5033548;28;20041;-84
2023/05/31 07:09:34;;;;;;;0.20;0.20;;;18.90;99.90;;;;;;5033496;28;20026;-85
2023/05/31 07:12:00;;;;;;;0.10;0.10;;;18.90;99.90;;;;;;5033669;28;20037;-84
2023/05/31 07:14:28;;;;;;;0.22;0.22;;;19.00;99.90;;;;;;5033977;28;20018;-85
2023/05/31 07:16:53;;;;;;;0.17;0.17;;;19.00;99.90;;;;;;5016026;28;20421;-85
2023/05/31 07:19:19;;;;;;;1.10;0.30;;;19.20;99.90;;;;;;5033286;28;20036;-85
2023/05/31 07:21:45;;;;;;;3.15;0.40;;;19.40;99.90;;;;;;5016094;28;20083;-85
2023/05/31 07:24:11;;;;;;;0.00;0.00;;;19.30;99.90;;;;;;5032848;28;20029;-84
2023/05/31 07:26:36;;;;;;;0.05;0.05;;;19.20;99.90;;;;;;5033065;28;20474;-84
2023/05/31 07:29:02;;;;;;;0.32;0.32;;;19.20;99.90;;;;;;5033212;28;20493;-84
2023/05/31 07:31:27;;;;;;;0.22;0.22;;;19.30;99.90;;;;;;5033077;28;20025;-84
2023/05/31 07:33:53;;;;;;;0.20;0.15;;;19.30;99.90;;;;;;5033658;28;20037;-84
2023/05/31 07:36:19;;;;;;;0.20;0.20;;;19.50;99.90;;;;;;5033070;28;20053;-84
2023/05/31 07:38:44;;;;;;;0.00;0.00;;;19.50;99.90;;;;;;5032406;28;20401;-85
2023/05/31 07:41:10;;;;;;;0.05;0.05;;;19.60;99.90;;;;;;5035556;28;20098;-84
2023/05/31 07:43:36;;;;;;;0.10;0.10;;;19.60;99.90;;;;;;5053629;28;20474;-84
2023/05/31 07:46:02;;;;;;;0.10;0.10;;;19.50;99.90;;;;;;5053127;28;20110;-85
2023/05/31 07:48:28;;;;;;;0.20;0.20;;;19.60;99.90;;;;;;5052846;28;20052;-84
2023/05/31 07:50:54;;;;;;;0.20;0.20;;;19.60;99.90;;;;;;5036928;28;20036;-85
2023/05/31 07:53:19;;;;;;;0.20;0.20;;;19.80;99.90;;;;;;5032348;28;20029;-84
2023/05/31 07:55:45;;;;;;;0.88;0.25;;;19.90;99.90;;;;;;5032731;28;20026;-85
2023/05/31 07:58:11;;;;;;;0.32;0.32;;;20.00;99.90;;;;;;5032881;28;20478;-85
2023/05/31 08:00:40;;;;;;;0.17;0.17;;;19.90;99.90;;;;;;5032039;28;20068;-85
2023/05/31 08:03:06;;;;;;;0.10;0.10;;;19.90;99.90;;;;;;5032922;28;20033;-84
2023/05/31 08:05:32;;;;;;;1.05;0.70;;;20.00;99.90;;;;;;5033015;28;20501;-85
2023/05/31 08:08:00;;;;;;;0.70;0.57;;;20.10;99.90;;;;;;5014512;28;20375;-85
2023/05/31 08:10:25;;;;;;;0.15;0.15;;;20.10;99.90;;;;;;5032950;28;20071;-84
2023/05/31 08:12:51;;;;;;;0.25;0.17;;;20.20;99.90;;;;;;5015339;28;20482;-85
2023/05/31 08:15:17;;;;;;;0.32;0.32;;;20.50;99.90;;;;;;5031930;28;20032;-84
2023/05/31 08:17:43;;;;;;;0.10;0.10;;;20.40;99.90;;;;;;5032273;28;20040;-84
2023/05/31 08:20:11;;;;;;;0.35;0.35;;;20.40;99.90;;;;;;5032407;28;20172;-85
2023/05/31 08:22:37;;;;;;;0.20;0.20;;;20.60;99.90;;;;;;5031760;28;20029;-84
2023/05/31 08:25:03;;;;;;;0.10;0.10;;;20.70;99.90;;;;;;5032210;28;20032;-84
2023/05/31 08:27:29;;;;;;;0.20;0.20;;;20.90;99.90;;;;;;5032158;28;20025;-84
2023/05/31 08:29:54;;;;;;;0.55;0.43;;;20.80;99.90;;;;;;5032299;28;20025;-85
2023/05/31 08:32:20;;;;;;;0.45;0.45;;;20.80;99.90;;;;;;5032388;28;20086;-84
2023/05/31 08:34:46;;;;;;;0.50;0.50;;;21.00;99.90;;;;;;5032471;28;20083;-84
2023/05/31 08:37:12;;;;;;;0.20;0.20;;;21.00;99.90;;;;;;5031692;28;20420;-84
2023/05/31 08:39:38;;;;;;;0.57;0.57;;;21.10;99.90;;;;;;5032530;28;20405;-84
2023/05/31 08:42:07;;;;;;;0.22;0.22;;;21.00;99.90;;;;;;5042140;28;20033;-85
2023/05/31 08:44:33;;;;;;;0.30;0.30;;;20.90;99.90;;;;;;5052601;28;20021;-84
2023/05/31 08:47:08;;;;;;;0.13;0.13;;;21.10;99.90;;;;;;5052268;28;20507;-84
2023/05/31 08:49:36;;;;;;;0.40;0.40;;;21.10;99.90;;;;;;5046778;28;20030;-84
2023/05/31 08:52:01;;;;;;;0.50;0.50;;;21.00;99.90;;;;;;5032037;28;20057;-84
2023/05/31 08:54:28;;;;;;;1.00;0.82;;;21.00;99.90;;;;;;5032221;28;20490;-84
2023/05/31 08:56:54;;;;;;;0.28;0.28;;;21.10;99.90;;;;;;5032090;28;20509;-85
2023/05/31 08:59:20;;;;;;;0.55;0.35;;;21.40;99.90;;;;;;5032238;28;20502;-84
2023/05/31 09:01:47;;;;;;;0.40;0.30;;;21.40;99.90;;;;;;5031951;28;20076;-85
2023/05/31 09:04:14;;;;;;;0.25;0.25;;;21.70;99.90;;;;;;5032076;28;20029;-83
2023/05/31 09:06:39;;;;;;;0.30;0.30;;;21.60;99.90;;;;;;5032169;28;20022;-85
2023/05/31 09:09:08;;;;;;;0.55;0.30;;;21.60;99.90;;;;;;5031827;28;20087;-84
2023/05/31 09:11:37;;;;;;;0.73;0.60;;;21.60;99.90;;;;;;5032207;28;20022;-85
2023/05/31 09:14:04;;;;;;;0.25;0.25;;;21.70;99.90;;;;;;5031661;28;20075;-85
2023/05/31 09:16:30;;;;;;;0.60;0.52;;;22.10;99.90;;;;;;5031546;28;20540;-84
2023/05/31 09:19:01;;;;;;;0.40;0.38;;;21.90;99.90;;;;;;5031284;28;20033;-84
2023/05/31 09:21:27;;;;;;;0.65;0.40;;;22.20;99.90;;;;;;5031738;28;20037;-85
2023/05/31 09:23:57;;;;;;;0.30;0.30;;;22.20;99.90;;;;;;5031980;28;20398;-84
2023/05/31 09:26:23;;;;;;;0.65;0.43;;;22.30;99.90;;;;;;5033458;28;20436;-85
2023/05/31 09:28:53;;;;;;;0.10;0.10;;;22.20;99.90;;;;;;5035668;28;20025;-85
2023/05/31 09:31:19;;;;;;;0.47;0.47;;;22.20;99.90;;;;;;5035507;28;20025;-85
2023/05/31 09:33:54;;;;;;;0.10;0.10;;;22.30;99.90;;;;;;5017346;28;20037;-85
2023/05/31 09:36:28;;;;;;;0.30;0.30;;;22.40;99.90;;;;;;5035249;28;20485;-85
2023/05/31 09:39:04;;;;;;;0.80;0.30;;;22.50;99.90;;;;;;5035687;28;20040;-85
2023/05/31 09:41:31;;;;;;;1.45;1.05;;;22.90;99.90;;;;;;5040889;28;20078;-84
2023/05/31 09:43:57;;;;;;;0.22;0.22;;;22.90;99.90;;;;;;5055061;28;20087;-84
2023/05/31 09:46:24;;;;;;;0.45;0.45;;;22.90;99.90;;;;;;5055025;28;20024;-85
2023/05/31 09:49:01;;;;;;;0.20;0.20;;;23.10;99.90;;;;;;5054669;28;20025;-84
2023/05/31 09:51:27;;;;;;;0.20;0.20;;;23.00;99.90;;;;;;5054906;28;20036;-85
2023/05/31 09:53:55;;;;;;;0.90;0.30;;;23.10;99.90;;;;;;5054897;28;20028;-85
2023/05/31 09:56:22;;;;;;;0.60;0.60;;;23.20;99.90;;;;;;5055267;28;20071;-85
2023/05/31 09:58:49;;;;;;;0.95;0.75;;;23.10;99.90;;;;;;5054819;28;20045;-85
2023/05/31 10:01:15;;;;;;;0.20;0.20;;;23.20;99.90;;;;;;5054805;28;20033;-85
2023/05/31 10:03:43;;;;;;;0.60;0.60;;;23.10;99.90;;;;;;5054217;28;20049;-84
2023/05/31 10:06:09;;;;;;;0.45;0.32;;;23.10;99.90;;;;;;5055069;28;20029;-84
2023/05/31 10:08:35;;;;;;;0.20;0.20;;;23.10;99.90;;;;;;5054476;28;20096;-85
2023/05/31 10:11:01;;;;;;;0.95;0.75;;;23.30;99.90;;;;;;5054512;28;20474;-84
2023/05/31 10:13:31;;;;;;;0.88;0.68;;;23.40;99.90;;;;;;5054574;28;20497;-85
2023/05/31 10:16:05;;;;;;;1.40;0.43;;;23.40;99.90;;;;;;5054331;28;20043;-85
2023/05/31 10:18:33;;;;;;;0.22;0.22;;;23.60;99.90;;;;;;5054056;28;20037;-84
2023/05/31 10:21:22;;;;;;;1.45;0.73;;;23.70;99.90;;;;;;5054785;28;20171;-85
2023/05/31 10:24:08;;;;;;;0.55;0.40;;;23.90;99.90;;;;;;5054509;28;20433;-85
2023/05/31 10:26:52;;;;;;;0.10;0.10;;;24.00;99.90;;;;;;5054232;28;20017;-85
2023/05/31 10:29:23;;;;;;;0.95;0.40;;;24.10;99.90;;;;;;5054265;28;20104;-85
2023/05/31 10:31:50;;;;;;;0.32;0.32;;;23.90;99.90;;;;;;5054041;28;20029;-84
2023/05/31 10:34:25;;;;;;;0.30;0.30;;;24.00;99.90;;;;;;5054190;28;20029;-84
2023/05/31 10:36:52;;;;;;;1.17;0.55;;;24.10;99.90;;;;;;5054289;28;20482;-85
2023/05/31 10:39:49;;;;;;;0.45;0.43;;;24.40;99.90;;;;;;5053710;28;20033;-85
2023/05/31 10:42:36;;;;;;;0.22;0.22;;;24.50;99.90;;;;;;4973092;28;20035;-84
2023/05/31 10:45:23;;;;;;;0.82;0.50;;;24.30;99.90;;;;;;4973454;28;20459;-85
2023/05/31 10:48:29;;;;;;;0.30;0.30;;;24.30;99.90;;;;;;4972673;28;20595;-85
2023/05/31 10:50:59;;;;;;;0.40;0.38;;;24.20;99.90;;;;;;4915449;28;20040;-85
2023/05/31 10:53:30;;;;;;;0.20;0.20;;;24.30;99.90;;;;;;4915463;29;20037;-85
2023/05/31 10:56:05;;;;;;;0.20;0.20;;;24.40;99.90;;;;;;4915681;29;20072;-85
2023/05/31 10:58:53;;;;;;;0.40;0.40;;;24.30;99.90;;;;;;4915366;29;20111;-84
2023/05/31 11:01:21;;;;;;;0.13;0.13;;;24.60;99.90;;;;;;4915489;29;20048;-85
2023/05/31 11:03:51;;;;;;;1.17;0.70;;;24.70;99.90;;;;;;4915237;29;20048;-84
2023/05/31 11:06:25;;;;;;;0.20;0.20;;;25.00;99.90;;;;;;4915421;29;20040;-84
2023/05/31 11:08:59;;;;;;;0.15;0.15;;;25.10;99.90;;;;;;4915452;29;20044;-85
2023/05/31 11:11:44;;;;;;;0.40;0.32;;;25.10;99.90;;;;;;4915019;29;20028;-84
2023/05/31 11:14:30;;;;;;;2.30;0.60;;;25.20;99.90;;;;;;4915467;29;20044;-84
2023/05/31 11:17:03;;;;;;;0.30;0.30;;;25.20;99.90;;;;;;4914705;29;20036;-85
2023/05/31 11:19:34;;;;;;;0.52;0.52;;;25.10;99.90;;;;;;4938816;29;20436;-84
2023/05/31 11:22:08;;;;;;;1.17;0.70;;;25.20;99.90;;;;;;4953128;29;20042;-85
2023/05/31 11:24:37;;;;;;;1.05;0.75;;;25.40;99.90;;;;;;4953311;29;20489;-85
2023/05/31 11:27:06;;;;;;;0.40;0.40;;;25.60;99.90;;;;;;5001217;28;20047;-85
2023/05/31 11:29:46;;;;;;;0.95;0.55;;;25.50;99.90;;;;;;5053080;28;20025;-84
2023/05/31 11:32:16;;;;;;;0.52;0.45;;;25.80;99.90;;;;;;5053455;28;20051;-84
2023/05/31 11:34:53;;;;;;;0.17;0.17;;;26.00;99.90;;;;;;5052869;28;20151;-85
2023/05/31 11:37:21;;;;;;;0.60;0.60;;;26.00;99.90;;;;;;5053229;28;20402;-85
2023/05/31 11:39:46;;;;;;;0.55;0.55;;;26.10;99.90;;;;;;5053077;28;20013;-84
2023/05/31 11:42:14;;;;;;;0.30;0.20;;;26.40;99.90;;;;;;5052828;28;20040;-84
2023/05/31 11:44:46;;;;;;;1.85;0.80;;;26.50;99.90;;;;;;5052498;28;20025;-85
2023/05/31 11:47:31;;;;;;;0.88;0.88;;;26.40;99.90;;;;;;5052857;28;20083;-85
2023/05/31 11:49:57;;;;;;;0.50;0.50;;;26.40;99.90;;;;;;5043939;28;20079;-84
2023/05/31 11:52:23;;;;;;;1.02;0.95;;;26.70;99.90;;;;;;5032986;28;20044;-84
2023/05/31 11:54:49;;;;;;;1.23;0.47;;;26.70;99.90;;;;;;5033278;28;20374;-85
2023/05/31 11:57:20;;;;;;;0.40;0.35;;;26.80;99.90;;;;;;5032507;28;20033;-85
2023/05/31 11:59:46;;;;;;;0.55;0.52;;;27.00;99.90;;;;;;5032011;28;20076;-84
2023/05/31 12:02:12;;;;;;;1.08;0.30;;;26.70;99.90;;;;;;5032497;28;20037;-85
2023/05/31 12:04:40;;;;;;;0.57;0.57;;;27.20;99.90;;;;;;5032963;28;20021;-85
2023/05/31 12:07:22;;;;;;;0.47;0.30;;;27.40;99.90;;;;;;5032559;28;20034;-85
2023/05/31 12:09:47;;;;;;;0.47;0.32;;;27.50;99.90;;;;;;5032439;28;20037;-85
2023/05/31 12:12:13;;;;;;;0.32;0.30;;;27.40;99.90;;;;;;5032313;28;20021;-85
2023/05/31 12:14:49;;;;;;;0.30;0.30;;;27.60;99.90;;;;;;5032041;28;20083;-84
2023/05/31 12:17:15;;;;;;;0.35;0.35;;;27.80;99.90;;;;;;5032508;28;20040;-85
2023/05/31 12:19:41;;;;;;;0.40;0.35;;;27.70;99.90;;;;;;5032212;28;20030;-85
2023/05/31 12:22:06;;;;;;;0.52;0.22;;;27.70;99.90;;;;;;5031902;28;20152;-84
2023/05/31 12:24:32;;;;;;;0.40;0.40;;;27.90;99.90;;;;;;5032419;28;20087;-85
2023/05/31 12:26:58;;;;;;;0.28;0.28;;;28.00;99.90;;;;;;5032094;28;20147;-85
2023/05/31 12:29:31;;;;;;;0.40;0.40;;;27.70;99.90;;;;;;5032272;28;20061;-85
2023/05/31 12:32:06;;;;;;;0.17;0.17;;;27.70;99.90;;;;;;5032044;28;20014;-84
2023/05/31 12:34:36;;;;;;;1.33;0.93;;;27.30;99.90;;;;;;5032154;28;20025;-85
2023/05/31 12:37:06;;;;;;;0.55;0.55;;;27.40;99.90;;;;;;5032120;28;20052;-85
2023/05/31 12:39:36;;;;;;;0.40;0.40;;;27.90;99.90;;;;;;5032060;28;20170;-85
2023/05/31 12:42:02;;;;;;;0.47;0.47;;;28.40;99.90;;;;;;5041385;28;20017;-85
2023/05/31 12:44:28;;;;;;;0.95;0.30;;;29.10;99.90;;;;;;5052099;28;20547;-85
2023/05/31 12:47:07;;;;;;;0.20;0.20;;;29.50;99.90;;;;;;5052021;28;20100;-85
2023/05/31 12:49:35;;;;;;;0.03;0.03;;;29.00;99.90;;;;;;5047275;28;20412;-85
2023/05/31 12:52:05;;;;;;;0.13;0.13;;;28.90;99.90;;;;;;5031835;28;20032;-85